sensor_id;sensor_type;location;lat;lon;timestamp;P1;durP1;ratioP1;P2;durP2;ratioP2
57395;SDS011;43222;52.912;6.940;2022-08-21T00:00:07;10.82;;;3.60;;
57395;SDS011;43222;52.912;6.940;2022-08-21T00:02:34;11.90;;;3.30;;
57395;SDS011;43222;52.912;6.940;2022-08-21T00:05:00;9.93;;;3.35;;
57395;SDS011;43222;52.912;6.940;2022-08-21T00:07:26;10.18;;;3.15;;
57395;SDS011;43222;52.912;6.940;2022-08-21T00:09:52;10.85;;;3.53;;
57395;SDS011;43222;52.912;6.940;2022-08-21T00:12:18;9.48;;;3.30;;
57395;SDS011;43222;52.912;6.940;2022-08-21T00:14:44;10.65;;;3.50;;
57395;SDS011;43222;52.912;6.940;2022-08-21T00:17:10;7.97;;;2.80;;
57395;SDS011;43222;52.912;6.940;2022-08-21T00:19:36;10.57;;;3.40;;
57395;SDS011;43222;52.912;6.940;2022-08-21T00:22:02;11.00;;;3.75;;
57395;SDS011;43222;52.912;6.940;2022-08-21T00:24:28;10.02;;;3.20;;
57395;SDS011;43222;52.912;6.940;2022-08-21T00:26:54;9.88;;;3.45;;
57395;SDS011;43222;52.912;6.940;2022-08-21T00:29:20;10.63;;;3.22;;
57395;SDS011;43222;52.912;6.940;2022-08-21T00:31:46;8.10;;;2.92;;
57395;SDS011;43222;52.912;6.940;2022-08-21T00:34:13;8.13;;;2.90;;
57395;SDS011;43222;52.912;6.940;2022-08-21T00:36:39;8.73;;;3.42;;
57395;SDS011;43222;52.912;6.940;2022-08-21T00:39:06;10.20;;;3.72;;
57395;SDS011;43222;52.912;6.940;2022-08-21T00:41:33;9.02;;;3.50;;
57395;SDS011;43222;52.912;6.940;2022-08-21T00:43:59;11.60;;;3.60;;
57395;SDS011;43222;52.912;6.940;2022-08-21T00:46:25;9.43;;;3.55;;
57395;SDS011;43222;52.912;6.940;2022-08-21T00:48:51;9.25;;;3.67;;
57395;SDS011;43222;52.912;6.940;2022-08-21T00:51:18;10.95;;;3.67;;
57395;SDS011;43222;52.912;6.940;2022-08-21T00:53:51;10.20;;;3.30;;
57395;SDS011;43222;52.912;6.940;2022-08-21T00:56:19;10.68;;;3.47;;
57395;SDS011;43222;52.912;6.940;2022-08-21T00:58:46;8.80;;;3.30;;
57395;SDS011;43222;52.912;6.940;2022-08-21T01:01:12;9.80;;;3.63;;
57395;SDS011;43222;52.912;6.940;2022-08-21T01:03:39;12.57;;;3.88;;
57395;SDS011;43222;52.912;6.940;2022-08-21T01:06:05;8.07;;;3.42;;
57395;SDS011;43222;52.912;6.940;2022-08-21T01:08:32;7.18;;;3.47;;
57395;SDS011;43222;52.912;6.940;2022-08-21T01:10:58;9.00;;;3.42;;
57395;SDS011;43222;52.912;6.940;2022-08-21T01:13:25;8.13;;;3.60;;
57395;SDS011;43222;52.912;6.940;2022-08-21T01:15:52;10.40;;;3.70;;
57395;SDS011;43222;52.912;6.940;2022-08-21T01:18:19;10.93;;;3.60;;
57395;SDS011;43222;52.912;6.940;2022-08-21T01:21:20;9.48;;;3.83;;
57395;SDS011;43222;52.912;6.940;2022-08-21T01:23:38;9.65;;;3.58;;
57395;SDS011;43222;52.912;6.940;2022-08-21T01:26:05;10.05;;;3.90;;
57395;SDS011;43222;52.912;6.940;2022-08-21T01:28:33;11.35;;;4.18;;
57395;SDS011;43222;52.912;6.940;2022-08-21T01:31:00;10.93;;;4.10;;
57395;SDS011;43222;52.912;6.940;2022-08-21T01:33:27;12.88;;;4.80;;
57395;SDS011;43222;52.912;6.940;2022-08-21T01:35:53;14.75;;;5.13;;
57395;SDS011;43222;52.912;6.940;2022-08-21T01:38:22;11.80;;;4.95;;
57395;SDS011;43222;52.912;6.940;2022-08-21T01:40:49;12.90;;;4.60;;
57395;SDS011;43222;52.912;6.940;2022-08-21T01:43:15;13.25;;;4.60;;
57395;SDS011;43222;52.912;6.940;2022-08-21T01:45:41;13.05;;;4.90;;
57395;SDS011;43222;52.912;6.940;2022-08-21T01:48:07;13.63;;;4.15;;
57395;SDS011;43222;52.912;6.940;2022-08-21T01:50:33;16.17;;;4.32;;
57395;SDS011;43222;52.912;6.940;2022-08-21T01:52:59;13.73;;;4.90;;
57395;SDS011;43222;52.912;6.940;2022-08-21T01:55:25;14.23;;;5.20;;
57395;SDS011;43222;52.912;6.940;2022-08-21T01:57:51;12.48;;;4.72;;
57395;SDS011;43222;52.912;6.940;2022-08-21T02:00:18;10.73;;;4.60;;
57395;SDS011;43222;52.912;6.940;2022-08-21T02:02:45;9.38;;;4.43;;
57395;SDS011;43222;52.912;6.940;2022-08-21T02:05:11;9.55;;;4.28;;
57395;SDS011;43222;52.912;6.940;2022-08-21T02:10:04;12.25;;;4.75;;
57395;SDS011;43222;52.912;6.940;2022-08-21T02:12:31;9.93;;;3.92;;
57395;SDS011;43222;52.912;6.940;2022-08-21T02:14:56;11.65;;;4.63;;
57395;SDS011;43222;52.912;6.940;2022-08-21T02:17:23;14.93;;;5.10;;
57395;SDS011;43222;52.912;6.940;2022-08-21T02:19:49;12.35;;;4.75;;
57395;SDS011;43222;52.912;6.940;2022-08-21T02:22:15;12.43;;;4.82;;
57395;SDS011;43222;52.912;6.940;2022-08-21T02:24:41;12.10;;;5.32;;
57395;SDS011;43222;52.912;6.940;2022-08-21T02:27:07;12.05;;;5.53;;
57395;SDS011;43222;52.912;6.940;2022-08-21T02:29:33;13.75;;;5.53;;
57395;SDS011;43222;52.912;6.940;2022-08-21T02:31:59;16.27;;;5.70;;
57395;SDS011;43222;52.912;6.940;2022-08-21T02:34:25;12.88;;;5.82;;
57395;SDS011;43222;52.912;6.940;2022-08-21T02:36:51;11.10;;;5.97;;
57395;SDS011;43222;52.912;6.940;2022-08-21T02:39:17;14.43;;;6.20;;
57395;SDS011;43222;52.912;6.940;2022-08-21T02:41:43;13.98;;;6.55;;
57395;SDS011;43222;52.912;6.940;2022-08-21T02:44:09;14.07;;;6.32;;
57395;SDS011;43222;52.912;6.940;2022-08-21T02:46:35;12.55;;;6.10;;
57395;SDS011;43222;52.912;6.940;2022-08-21T02:49:01;12.90;;;6.50;;
57395;SDS011;43222;52.912;6.940;2022-08-21T02:51:27;14.13;;;6.10;;
57395;SDS011;43222;52.912;6.940;2022-08-21T02:53:53;15.95;;;6.38;;
57395;SDS011;43222;52.912;6.940;2022-08-21T02:56:20;12.90;;;6.60;;
57395;SDS011;43222;52.912;6.940;2022-08-21T02:58:48;9.88;;;5.90;;
57395;SDS011;43222;52.912;6.940;2022-08-21T03:01:14;14.75;;;6.88;;
57395;SDS011;43222;52.912;6.940;2022-08-21T03:03:41;11.35;;;7.07;;
57395;SDS011;43222;52.912;6.940;2022-08-21T03:06:08;14.70;;;7.85;;
57395;SDS011;43222;52.912;6.940;2022-08-21T03:08:35;14.82;;;7.63;;
57395;SDS011;43222;52.912;6.940;2022-08-21T03:11:01;15.68;;;7.90;;
57395;SDS011;43222;52.912;6.940;2022-08-21T03:13:27;14.65;;;8.40;;
57395;SDS011;43222;52.912;6.940;2022-08-21T03:15:53;15.20;;;8.30;;
57395;SDS011;43222;52.912;6.940;2022-08-21T03:18:20;16.88;;;8.90;;
57395;SDS011;43222;52.912;6.940;2022-08-21T03:20:46;15.13;;;8.80;;
57395;SDS011;43222;52.912;6.940;2022-08-21T03:23:12;12.38;;;8.82;;
57395;SDS011;43222;52.912;6.940;2022-08-21T03:25:39;14.35;;;8.38;;
57395;SDS011;43222;52.912;6.940;2022-08-21T03:28:05;14.60;;;9.20;;
57395;SDS011;43222;52.912;6.940;2022-08-21T03:30:32;15.13;;;8.43;;
57395;SDS011;43222;52.912;6.940;2022-08-21T03:32:58;17.00;;;9.85;;
57395;SDS011;43222;52.912;6.940;2022-08-21T03:35:25;14.68;;;9.50;;
57395;SDS011;43222;52.912;6.940;2022-08-21T03:37:51;15.27;;;9.52;;
57395;SDS011;43222;52.912;6.940;2022-08-21T03:40:19;14.15;;;8.80;;
57395;SDS011;43222;52.912;6.940;2022-08-21T03:42:45;13.88;;;9.65;;
57395;SDS011;43222;52.912;6.940;2022-08-21T03:45:12;16.92;;;9.77;;
57395;SDS011;43222;52.912;6.940;2022-08-21T03:47:38;17.65;;;10.50;;
57395;SDS011;43222;52.912;6.940;2022-08-21T03:50:05;12.82;;;9.02;;
57395;SDS011;43222;52.912;6.940;2022-08-21T03:52:32;16.88;;;9.60;;
57395;SDS011;43222;52.912;6.940;2022-08-21T03:54:59;16.13;;;9.52;;
57395;SDS011;43222;52.912;6.940;2022-08-21T03:57:25;13.68;;;9.35;;
57395;SDS011;43222;52.912;6.940;2022-08-21T03:59:51;16.15;;;9.80;;
57395;SDS011;43222;52.912;6.940;2022-08-21T04:02:17;14.20;;;9.18;;
57395;SDS011;43222;52.912;6.940;2022-08-21T04:04:43;12.20;;;9.27;;
57395;SDS011;43222;52.912;6.940;2022-08-21T04:07:10;13.05;;;9.43;;
57395;SDS011;43222;52.912;6.940;2022-08-21T04:09:36;15.70;;;9.27;;
57395;SDS011;43222;52.912;6.940;2022-08-21T04:12:02;14.50;;;8.90;;
57395;SDS011;43222;52.912;6.940;2022-08-21T04:14:28;12.40;;;10.38;;
57395;SDS011;43222;52.912;6.940;2022-08-21T04:16:55;17.88;;;9.93;;
57395;SDS011;43222;52.912;6.940;2022-08-21T04:19:21;17.90;;;10.02;;
57395;SDS011;43222;52.912;6.940;2022-08-21T04:21:48;18.05;;;10.90;;
57395;SDS011;43222;52.912;6.940;2022-08-21T04:24:14;13.18;;;10.38;;
57395;SDS011;43222;52.912;6.940;2022-08-21T04:26:40;16.98;;;11.20;;
57395;SDS011;43222;52.912;6.940;2022-08-21T04:29:06;15.65;;;10.35;;
57395;SDS011;43222;52.912;6.940;2022-08-21T04:31:33;14.88;;;10.40;;
57395;SDS011;43222;52.912;6.940;2022-08-21T04:33:59;15.20;;;10.27;;
57395;SDS011;43222;52.912;6.940;2022-08-21T04:36:25;14.02;;;9.95;;
57395;SDS011;43222;52.912;6.940;2022-08-21T04:38:51;15.75;;;10.48;;
57395;SDS011;43222;52.912;6.940;2022-08-21T04:41:18;12.68;;;10.20;;
57395;SDS011;43222;52.912;6.940;2022-08-21T04:43:44;14.88;;;10.32;;
57395;SDS011;43222;52.912;6.940;2022-08-21T04:46:10;13.65;;;10.50;;
57395;SDS011;43222;52.912;6.940;2022-08-21T04:48:36;13.57;;;10.10;;
57395;SDS011;43222;52.912;6.940;2022-08-21T04:51:05;13.02;;;9.80;;
57395;SDS011;43222;52.912;6.940;2022-08-21T04:56:06;14.50;;;10.02;;
57395;SDS011;43222;52.912;6.940;2022-08-21T04:58:34;16.02;;;10.48;;
57395;SDS011;43222;52.912;6.940;2022-08-21T05:01:00;15.95;;;9.93;;
57395;SDS011;43222;52.912;6.940;2022-08-21T05:03:27;13.95;;;10.00;;
57395;SDS011;43222;52.912;6.940;2022-08-21T05:05:53;13.70;;;10.55;;
57395;SDS011;43222;52.912;6.940;2022-08-21T05:08:21;17.90;;;10.40;;
57395;SDS011;43222;52.912;6.940;2022-08-21T05:10:48;15.35;;;9.55;;
57395;SDS011;43222;52.912;6.940;2022-08-21T05:13:14;12.88;;;10.35;;
57395;SDS011;43222;52.912;6.940;2022-08-21T05:15:40;17.40;;;10.43;;
57395;SDS011;43222;52.912;6.940;2022-08-21T05:18:07;13.40;;;10.25;;
57395;SDS011;43222;52.912;6.940;2022-08-21T05:20:33;12.68;;;10.07;;
57395;SDS011;43222;52.912;6.940;2022-08-21T05:22:59;14.15;;;9.98;;
57395;SDS011;43222;52.912;6.940;2022-08-21T05:25:26;13.73;;;9.55;;
57395;SDS011;43222;52.912;6.940;2022-08-21T05:27:52;13.25;;;9.68;;
57395;SDS011;43222;52.912;6.940;2022-08-21T05:30:18;13.63;;;9.65;;
57395;SDS011;43222;52.912;6.940;2022-08-21T05:32:44;14.43;;;9.73;;
57395;SDS011;43222;52.912;6.940;2022-08-21T05:35:10;15.23;;;8.88;;
57395;SDS011;43222;52.912;6.940;2022-08-21T05:37:37;11.40;;;8.02;;
57395;SDS011;43222;52.912;6.940;2022-08-21T05:40:03;11.13;;;8.10;;
57395;SDS011;43222;52.912;6.940;2022-08-21T05:42:30;12.43;;;7.60;;
57395;SDS011;43222;52.912;6.940;2022-08-21T05:44:59;12.73;;;7.57;;
57395;SDS011;43222;52.912;6.940;2022-08-21T05:47:25;10.77;;;6.53;;
57395;SDS011;43222;52.912;6.940;2022-08-21T05:49:51;12.43;;;6.63;;
57395;SDS011;43222;52.912;6.940;2022-08-21T05:52:20;10.68;;;6.18;;
57395;SDS011;43222;52.912;6.940;2022-08-21T05:54:46;10.45;;;5.22;;
57395;SDS011;43222;52.912;6.940;2022-08-21T05:57:12;10.32;;;5.80;;
57395;SDS011;43222;52.912;6.940;2022-08-21T05:59:38;9.95;;;5.32;;
57395;SDS011;43222;52.912;6.940;2022-08-21T06:02:04;10.02;;;5.10;;
57395;SDS011;43222;52.912;6.940;2022-08-21T06:04:35;10.73;;;4.82;;
57395;SDS011;43222;52.912;6.940;2022-08-21T06:07:01;10.52;;;4.95;;
57395;SDS011;43222;52.912;6.940;2022-08-21T06:09:27;8.88;;;4.85;;
57395;SDS011;43222;52.912;6.940;2022-08-21T06:11:53;9.05;;;4.80;;
57395;SDS011;43222;52.912;6.940;2022-08-21T06:14:19;8.93;;;4.15;;
57395;SDS011;43222;52.912;6.940;2022-08-21T06:16:45;9.75;;;4.25;;
57395;SDS011;43222;52.912;6.940;2022-08-21T06:19:11;12.10;;;4.63;;
57395;SDS011;43222;52.912;6.940;2022-08-21T06:21:37;11.25;;;4.20;;
57395;SDS011;43222;52.912;6.940;2022-08-21T06:24:04;9.18;;;4.32;;
57395;SDS011;43222;52.912;6.940;2022-08-21T06:26:30;9.82;;;4.32;;
57395;SDS011;43222;52.912;6.940;2022-08-21T06:28:57;8.93;;;4.55;;
57395;SDS011;43222;52.912;6.940;2022-08-21T06:31:24;8.95;;;4.22;;
57395;SDS011;43222;52.912;6.940;2022-08-21T06:33:50;9.40;;;4.50;;
57395;SDS011;43222;52.912;6.940;2022-08-21T06:36:16;7.95;;;3.83;;
57395;SDS011;43222;52.912;6.940;2022-08-21T06:38:42;9.70;;;3.80;;
57395;SDS011;43222;52.912;6.940;2022-08-21T06:41:08;9.95;;;3.75;;
57395;SDS011;43222;52.912;6.940;2022-08-21T06:43:34;9.35;;;4.20;;
57395;SDS011;43222;52.912;6.940;2022-08-21T06:46:00;10.25;;;4.40;;
57395;SDS011;43222;52.912;6.940;2022-08-21T06:48:26;10.00;;;4.28;;
57395;SDS011;43222;52.912;6.940;2022-08-21T06:50:54;10.38;;;3.55;;
57395;SDS011;43222;52.912;6.940;2022-08-21T06:53:21;9.27;;;3.65;;
57395;SDS011;43222;52.912;6.940;2022-08-21T06:55:47;8.45;;;3.80;;
57395;SDS011;43222;52.912;6.940;2022-08-21T06:58:13;9.30;;;3.90;;
57395;SDS011;43222;52.912;6.940;2022-08-21T07:00:40;11.50;;;4.03;;
57395;SDS011;43222;52.912;6.940;2022-08-21T07:03:07;9.35;;;3.67;;
57395;SDS011;43222;52.912;6.940;2022-08-21T07:05:33;10.05;;;3.95;;
57395;SDS011;43222;52.912;6.940;2022-08-21T07:07:59;9.80;;;3.75;;
57395;SDS011;43222;52.912;6.940;2022-08-21T07:10:25;9.60;;;3.60;;
57395;SDS011;43222;52.912;6.940;2022-08-21T07:12:52;11.10;;;4.25;;
57395;SDS011;43222;52.912;6.940;2022-08-21T07:15:19;11.38;;;3.92;;
57395;SDS011;43222;52.912;6.940;2022-08-21T07:17:45;9.15;;;3.45;;
57395;SDS011;43222;52.912;6.940;2022-08-21T07:20:11;9.88;;;3.35;;
57395;SDS011;43222;52.912;6.940;2022-08-21T07:22:38;9.48;;;3.47;;
57395;SDS011;43222;52.912;6.940;2022-08-21T07:25:05;8.07;;;3.33;;
57395;SDS011;43222;52.912;6.940;2022-08-21T07:27:31;10.50;;;3.42;;
57395;SDS011;43222;52.912;6.940;2022-08-21T07:29:57;8.30;;;3.15;;
57395;SDS011;43222;52.912;6.940;2022-08-21T07:32:23;8.77;;;3.00;;
57395;SDS011;43222;52.912;6.940;2022-08-21T07:34:49;10.70;;;3.05;;
57395;SDS011;43222;52.912;6.940;2022-08-21T07:37:16;11.30;;;3.30;;
57395;SDS011;43222;52.912;6.940;2022-08-21T07:39:42;10.02;;;2.80;;
57395;SDS011;43222;52.912;6.940;2022-08-21T07:42:09;9.63;;;2.70;;
57395;SDS011;43222;52.912;6.940;2022-08-21T07:44:35;10.45;;;3.00;;
57395;SDS011;43222;52.912;6.940;2022-08-21T07:47:01;8.82;;;2.78;;
57395;SDS011;43222;52.912;6.940;2022-08-21T07:49:27;8.98;;;2.60;;
57395;SDS011;43222;52.912;6.940;2022-08-21T07:51:53;9.13;;;2.85;;
57395;SDS011;43222;52.912;6.940;2022-08-21T07:54:20;10.43;;;2.58;;
57395;SDS011;43222;52.912;6.940;2022-08-21T07:56:46;8.32;;;2.25;;
57395;SDS011;43222;52.912;6.940;2022-08-21T07:59:11;10.50;;;2.53;;
57395;SDS011;43222;52.912;6.940;2022-08-21T08:01:38;9.90;;;2.50;;
57395;SDS011;43222;52.912;6.940;2022-08-21T08:04:04;11.88;;;2.90;;
57395;SDS011;43222;52.912;6.940;2022-08-21T08:06:29;10.48;;;2.38;;
57395;SDS011;43222;52.912;6.940;2022-08-21T08:08:56;10.18;;;2.28;;
57395;SDS011;43222;52.912;6.940;2022-08-21T08:11:22;9.65;;;2.38;;
57395;SDS011;43222;52.912;6.940;2022-08-21T08:13:49;11.95;;;2.50;;
57395;SDS011;43222;52.912;6.940;2022-08-21T08:16:16;10.30;;;2.63;;
57395;SDS011;43222;52.912;6.940;2022-08-21T08:18:42;10.05;;;2.35;;
57395;SDS011;43222;52.912;6.940;2022-08-21T08:21:09;10.43;;;2.25;;
57395;SDS011;43222;52.912;6.940;2022-08-21T08:23:35;9.70;;;2.35;;
57395;SDS011;43222;52.912;6.940;2022-08-21T08:26:01;8.18;;;2.53;;
57395;SDS011;43222;52.912;6.940;2022-08-21T08:28:28;9.23;;;2.50;;
57395;SDS011;43222;52.912;6.940;2022-08-21T08:30:55;9.55;;;2.35;;
57395;SDS011;43222;52.912;6.940;2022-08-21T08:33:21;8.82;;;2.40;;
57395;SDS011;43222;52.912;6.940;2022-08-21T08:35:48;8.25;;;2.13;;
57395;SDS011;43222;52.912;6.940;2022-08-21T08:38:15;13.57;;;2.85;;
57395;SDS011;43222;52.912;6.940;2022-08-21T08:43:16;11.65;;;3.08;;
57395;SDS011;43222;52.912;6.940;2022-08-21T08:45:45;10.18;;;2.60;;
57395;SDS011;43222;52.912;6.940;2022-08-21T08:48:13;10.63;;;2.80;;
57395;SDS011;43222;52.912;6.940;2022-08-21T08:50:41;9.95;;;2.70;;
57395;SDS011;43222;52.912;6.940;2022-08-21T08:53:17;9.65;;;2.40;;
57395;SDS011;43222;52.912;6.940;2022-08-21T08:55:45;10.27;;;2.72;;
57395;SDS011;43222;52.912;6.940;2022-08-21T08:58:14;10.18;;;2.85;;
57395;SDS011;43222;52.912;6.940;2022-08-21T09:00:42;9.75;;;2.67;;
57395;SDS011;43222;52.912;6.940;2022-08-21T09:03:09;7.97;;;2.60;;
57395;SDS011;43222;52.912;6.940;2022-08-21T09:05:42;8.70;;;2.60;;
57395;SDS011;43222;52.912;6.940;2022-08-21T09:08:19;10.18;;;2.72;;
57395;SDS011;43222;52.912;6.940;2022-08-21T09:10:57;10.05;;;2.78;;
57395;SDS011;43222;52.912;6.940;2022-08-21T09:21:47;10.98;;;2.60;;
57395;SDS011;43222;52.912;6.940;2022-08-21T09:26:47;6.68;;;2.00;;
57395;SDS011;43222;52.912;6.940;2022-08-21T09:29:14;10.57;;;2.40;;
57395;SDS011;43222;52.912;6.940;2022-08-21T09:31:43;9.35;;;2.60;;
57395;SDS011;43222;52.912;6.940;2022-08-21T09:34:10;9.05;;;2.60;;
57395;SDS011;43222;52.912;6.940;2022-08-21T09:36:40;12.73;;;2.65;;
57395;SDS011;43222;52.912;6.940;2022-08-21T09:39:08;9.68;;;2.28;;
57395;SDS011;43222;52.912;6.940;2022-08-21T09:41:35;8.82;;;2.05;;
57395;SDS011;43222;52.912;6.940;2022-08-21T09:44:03;7.00;;;1.90;;
57395;SDS011;43222;52.912;6.940;2022-08-21T09:46:29;6.47;;;1.58;;
57395;SDS011;43222;52.912;6.940;2022-08-21T09:48:57;8.73;;;2.17;;
57395;SDS011;43222;52.912;6.940;2022-08-21T09:51:25;9.88;;;2.67;;
57395;SDS011;43222;52.912;6.940;2022-08-21T09:53:56;11.48;;;2.33;;
57395;SDS011;43222;52.912;6.940;2022-08-21T09:59:18;8.32;;;2.25;;
57395;SDS011;43222;52.912;6.940;2022-08-21T10:01:46;10.43;;;2.50;;
57395;SDS011;43222;52.912;6.940;2022-08-21T10:04:12;9.32;;;2.40;;
57395;SDS011;43222;52.912;6.940;2022-08-21T10:06:39;8.65;;;2.30;;
57395;SDS011;43222;52.912;6.940;2022-08-21T10:09:09;8.38;;;2.55;;
57395;SDS011;43222;52.912;6.940;2022-08-21T10:11:35;11.45;;;2.70;;
57395;SDS011;43222;52.912;6.940;2022-08-21T10:16:46;9.98;;;2.13;;
57395;SDS011;43222;52.912;6.940;2022-08-21T10:19:23;6.90;;;2.03;;
57395;SDS011;43222;52.912;6.940;2022-08-21T10:24:29;8.20;;;2.15;;
57395;SDS011;43222;52.912;6.940;2022-08-21T10:27:14;10.40;;;2.28;;
57395;SDS011;43222;52.912;6.940;2022-08-21T10:32:15;8.85;;;2.15;;
57395;SDS011;43222;52.912;6.940;2022-08-21T10:34:59;8.50;;;1.95;;
57395;SDS011;43222;52.912;6.940;2022-08-21T10:39:57;8.93;;;2.22;;
57395;SDS011;43222;52.912;6.940;2022-08-21T10:42:36;9.73;;;2.60;;
57395;SDS011;43222;52.912;6.940;2022-08-21T10:45:09;9.98;;;2.15;;
57395;SDS011;43222;52.912;6.940;2022-08-21T10:55:21;7.28;;;1.90;;
57395;SDS011;43222;52.912;6.940;2022-08-21T10:57:58;6.53;;;1.77;;
57395;SDS011;43222;52.912;6.940;2022-08-21T11:00:32;7.45;;;1.45;;
57395;SDS011;43222;52.912;6.940;2022-08-21T11:03:13;10.35;;;2.20;;
57395;SDS011;43222;52.912;6.940;2022-08-21T11:11:03;7.55;;;1.75;;
57395;SDS011;43222;52.912;6.940;2022-08-21T11:13:38;8.57;;;1.90;;
57395;SDS011;43222;52.912;6.940;2022-08-21T11:18:32;7.22;;;1.90;;
57395;SDS011;43222;52.912;6.940;2022-08-21T11:23:28;6.78;;;1.73;;
57395;SDS011;43222;52.912;6.940;2022-08-21T11:25:58;7.88;;;1.58;;
57395;SDS011;43222;52.912;6.940;2022-08-21T11:28:28;8.60;;;2.03;;
57395;SDS011;43222;52.912;6.940;2022-08-21T11:31:02;8.80;;;1.92;;
57395;SDS011;43222;52.912;6.940;2022-08-21T11:34:04;10.00;;;2.00;;
57395;SDS011;43222;52.912;6.940;2022-08-21T11:36:26;8.75;;;1.80;;
57395;SDS011;43222;52.912;6.940;2022-08-21T11:39:36;6.53;;;1.40;;
57395;SDS011;43222;52.912;6.940;2022-08-21T11:42:28;7.05;;;1.67;;
57395;SDS011;43222;52.912;6.940;2022-08-21T11:44:42;7.40;;;1.60;;
57395;SDS011;43222;52.912;6.940;2022-08-21T11:47:13;6.88;;;1.58;;
57395;SDS011;43222;52.912;6.940;2022-08-21T11:55:10;6.35;;;1.60;;
57395;SDS011;43222;52.912;6.940;2022-08-21T11:57:49;6.75;;;1.67;;
57395;SDS011;43222;52.912;6.940;2022-08-21T12:00:24;7.88;;;1.52;;
57395;SDS011;43222;52.912;6.940;2022-08-21T12:02:53;6.97;;;1.55;;
57395;SDS011;43222;52.912;6.940;2022-08-21T12:05:28;7.30;;;1.63;;
57395;SDS011;43222;52.912;6.940;2022-08-21T12:08:06;6.95;;;1.65;;
57395;SDS011;43222;52.912;6.940;2022-08-21T12:10:37;7.70;;;1.42;;
57395;SDS011;43222;52.912;6.940;2022-08-21T12:13:09;8.32;;;1.77;;
57395;SDS011;43222;52.912;6.940;2022-08-21T12:15:37;7.93;;;1.70;;
57395;SDS011;43222;52.912;6.940;2022-08-21T12:18:05;7.93;;;1.80;;
57395;SDS011;43222;52.912;6.940;2022-08-21T12:25:41;9.65;;;1.63;;
57395;SDS011;43222;52.912;6.940;2022-08-21T12:28:12;7.30;;;2.00;;
57395;SDS011;43222;52.912;6.940;2022-08-21T12:30:40;7.60;;;1.50;;
57395;SDS011;43222;52.912;6.940;2022-08-21T12:33:18;5.50;;;1.58;;
57395;SDS011;43222;52.912;6.940;2022-08-21T12:35:45;7.78;;;1.75;;
57395;SDS011;43222;52.912;6.940;2022-08-21T12:40:46;6.55;;;1.77;;
57395;SDS011;43222;52.912;6.940;2022-08-21T12:43:14;7.87;;;1.57;;
57395;SDS011;43222;52.912;6.940;2022-08-21T12:45:42;5.45;;;1.30;;
57395;SDS011;43222;52.912;6.940;2022-08-21T12:48:21;8.52;;;1.88;;
57395;SDS011;43222;52.912;6.940;2022-08-21T12:53:22;6.63;;;1.40;;
57395;SDS011;43222;52.912;6.940;2022-08-21T12:55:49;6.97;;;1.67;;
57395;SDS011;43222;52.912;6.940;2022-08-21T12:58:22;9.55;;;2.17;;
57395;SDS011;43222;52.912;6.940;2022-08-21T13:00:53;9.57;;;2.08;;
57395;SDS011;43222;52.912;6.940;2022-08-21T13:03:21;8.07;;;1.98;;
57395;SDS011;43222;52.912;6.940;2022-08-21T13:05:48;8.30;;;2.00;;
57395;SDS011;43222;52.912;6.940;2022-08-21T13:08:16;8.07;;;1.90;;
57395;SDS011;43222;52.912;6.940;2022-08-21T13:10:44;7.80;;;1.75;;
57395;SDS011;43222;52.912;6.940;2022-08-21T13:13:22;8.57;;;1.73;;
57395;SDS011;43222;52.912;6.940;2022-08-21T13:15:49;7.85;;;2.00;;
57395;SDS011;43222;52.912;6.940;2022-08-21T13:18:22;6.75;;;1.83;;
57395;SDS011;43222;52.912;6.940;2022-08-21T13:20:48;9.55;;;2.17;;
57395;SDS011;43222;52.912;6.940;2022-08-21T13:23:27;6.82;;;1.90;;
57395;SDS011;43222;52.912;6.940;2022-08-21T13:25:54;7.50;;;1.80;;
57395;SDS011;43222;52.912;6.940;2022-08-21T13:28:20;8.38;;;1.70;;
57395;SDS011;43222;52.912;6.940;2022-08-21T13:30:51;7.93;;;1.85;;
57395;SDS011;43222;52.912;6.940;2022-08-21T13:33:19;8.90;;;2.13;;
57395;SDS011;43222;52.912;6.940;2022-08-21T13:35:47;8.30;;;1.70;;
57395;SDS011;43222;52.912;6.940;2022-08-21T13:38:13;8.02;;;1.95;;
57395;SDS011;43222;52.912;6.940;2022-08-21T13:40:44;9.13;;;1.88;;
57395;SDS011;43222;52.912;6.940;2022-08-21T13:43:12;6.68;;;1.92;;
57395;SDS011;43222;52.912;6.940;2022-08-21T13:45:42;13.63;;;2.35;;
57395;SDS011;43222;52.912;6.940;2022-08-21T13:48:09;7.95;;;1.98;;
57395;SDS011;43222;52.912;6.940;2022-08-21T13:50:36;10.70;;;2.00;;
57395;SDS011;43222;52.912;6.940;2022-08-21T13:53:05;9.07;;;2.05;;
57395;SDS011;43222;52.912;6.940;2022-08-21T13:55:39;9.20;;;2.30;;
57395;SDS011;43222;52.912;6.940;2022-08-21T13:58:05;8.95;;;2.10;;
57395;SDS011;43222;52.912;6.940;2022-08-21T14:00:33;8.48;;;2.10;;
57395;SDS011;43222;52.912;6.940;2022-08-21T14:03:03;10.95;;;2.80;;
57395;SDS011;43222;52.912;6.940;2022-08-21T14:05:31;9.83;;;2.10;;
57395;SDS011;43222;52.912;6.940;2022-08-21T14:08:00;13.43;;;2.50;;
57395;SDS011;43222;52.912;6.940;2022-08-21T14:10:28;9.15;;;2.10;;
57395;SDS011;43222;52.912;6.940;2022-08-21T14:12:59;8.27;;;2.10;;
57395;SDS011;43222;52.912;6.940;2022-08-21T14:15:27;7.15;;;2.20;;
57395;SDS011;43222;52.912;6.940;2022-08-21T14:17:54;8.77;;;2.22;;
57395;SDS011;43222;52.912;6.940;2022-08-21T14:20:32;10.18;;;2.60;;
57395;SDS011;43222;52.912;6.940;2022-08-21T14:22:58;12.73;;;2.72;;
57395;SDS011;43222;52.912;6.940;2022-08-21T14:30:21;9.90;;;2.35;;
57395;SDS011;43222;52.912;6.940;2022-08-21T14:32:47;11.68;;;2.20;;
57395;SDS011;43222;52.912;6.940;2022-08-21T14:35:13;12.60;;;2.30;;
57395;SDS011;43222;52.912;6.940;2022-08-21T14:37:42;10.85;;;2.47;;
57395;SDS011;43222;52.912;6.940;2022-08-21T14:40:09;8.93;;;2.10;;
57395;SDS011;43222;52.912;6.940;2022-08-21T14:42:36;8.85;;;2.38;;
57395;SDS011;43222;52.912;6.940;2022-08-21T14:45:05;10.05;;;2.58;;
57395;SDS011;43222;52.912;6.940;2022-08-21T14:47:33;9.52;;;2.30;;
57395;SDS011;43222;52.912;6.940;2022-08-21T14:49:59;10.50;;;2.72;;
57395;SDS011;43222;52.912;6.940;2022-08-21T14:52:25;9.98;;;2.70;;
57395;SDS011;43222;52.912;6.940;2022-08-21T14:54:51;10.43;;;2.33;;
57395;SDS011;43222;52.912;6.940;2022-08-21T14:57:17;8.93;;;2.22;;
57395;SDS011;43222;52.912;6.940;2022-08-21T14:59:43;7.70;;;2.65;;
57395;SDS011;43222;52.912;6.940;2022-08-21T15:02:09;11.05;;;2.55;;
57395;SDS011;43222;52.912;6.940;2022-08-21T15:04:36;11.07;;;2.40;;
57395;SDS011;43222;52.912;6.940;2022-08-21T15:07:02;7.28;;;2.17;;
57395;SDS011;43222;52.912;6.940;2022-08-21T15:09:28;8.88;;;1.77;;
57395;SDS011;43222;52.912;6.940;2022-08-21T15:11:55;8.60;;;2.25;;
57395;SDS011;43222;52.912;6.940;2022-08-21T15:14:24;8.07;;;2.28;;
57395;SDS011;43222;52.912;6.940;2022-08-21T15:16:50;11.30;;;2.78;;
57395;SDS011;43222;52.912;6.940;2022-08-21T15:19:17;8.43;;;2.28;;
57395;SDS011;43222;52.912;6.940;2022-08-21T15:21:43;10.80;;;2.60;;
57395;SDS011;43222;52.912;6.940;2022-08-21T15:24:09;10.35;;;2.30;;
57395;SDS011;43222;52.912;6.940;2022-08-21T15:26:35;8.73;;;2.33;;
57395;SDS011;43222;52.912;6.940;2022-08-21T15:29:04;10.20;;;2.20;;
57395;SDS011;43222;52.912;6.940;2022-08-21T15:31:31;11.95;;;2.40;;
57395;SDS011;43222;52.912;6.940;2022-08-21T15:33:57;10.65;;;2.30;;
57395;SDS011;43222;52.912;6.940;2022-08-21T15:36:23;10.68;;;3.05;;
57395;SDS011;43222;52.912;6.940;2022-08-21T15:38:49;8.73;;;2.50;;
57395;SDS011;43222;52.912;6.940;2022-08-21T15:41:15;8.70;;;2.00;;
57395;SDS011;43222;52.912;6.940;2022-08-21T15:43:44;12.25;;;2.50;;
57395;SDS011;43222;52.912;6.940;2022-08-21T15:46:12;8.90;;;2.30;;
57395;SDS011;43222;52.912;6.940;2022-08-21T15:48:38;9.00;;;2.50;;
57395;SDS011;43222;52.912;6.940;2022-08-21T15:51:04;8.98;;;2.30;;
57395;SDS011;43222;52.912;6.940;2022-08-21T15:53:30;10.25;;;2.17;;